createdAt,value
2019-01-16T00:02:28.791Z,87.00
2019-01-16T00:05:21.428Z,87.00
2019-01-16T00:08:06.964Z,86.70
2019-01-16T00:10:53.938Z,86.90
2019-01-16T00:13:40.973Z,86.90
2019-01-16T00:16:26.610Z,87.10
2019-01-16T00:19:17.518Z,86.90
2019-01-16T00:22:07.564Z,86.90
2019-01-16T00:24:52.652Z,87.00
2019-01-16T00:27:38.298Z,86.70
2019-01-16T00:30:26.968Z,86.50
2019-01-16T00:33:08.400Z,86.70
2019-01-16T00:35:55.387Z,87.00
2019-01-16T00:38:48.200Z,86.70
2019-01-16T00:41:33.780Z,86.50
2019-01-16T00:44:12.994Z,86.50
2019-01-16T00:47:05.758Z,86.70
2019-01-16T00:50:10.873Z,86.70
2019-01-16T00:53:00.751Z,86.30
2019-01-16T00:55:47.727Z,86.30
2019-01-16T00:58:35.102Z,86.20
2019-01-16T01:01:18.938Z,86.20
2019-01-16T01:04:01.445Z,86.40
2019-01-16T01:06:48.892Z,86.20
2019-01-16T01:09:35.840Z,86.40
2019-01-16T01:12:18.210Z,86.40
2019-01-16T01:15:04.685Z,86.60
2019-01-16T01:17:54.724Z,86.60
2019-01-16T01:20:40.602Z,87.00
2019-01-16T01:23:26.015Z,86.90
2019-01-16T01:26:16.194Z,87.00
2019-01-16T01:29:01.470Z,86.50
2019-01-16T01:31:36.141Z,86.40
2019-01-16T01:34:23.122Z,86.70
2019-01-16T01:37:10.358Z,86.40
2019-01-16T01:39:51.140Z,86.70
2019-01-16T01:42:46.949Z,86.50
2019-01-16T01:45:36.777Z,86.90
2019-01-16T01:48:15.667Z,86.90
2019-01-16T01:51:05.441Z,86.90
2019-01-16T01:53:51.250Z,86.90
2019-01-16T01:56:53.090Z,86.90
2019-01-16T01:59:43.680Z,86.90
2019-01-16T02:02:18.537Z,86.90
2019-01-16T02:05:14.386Z,86.90
2019-01-16T02:07:58.903Z,87.00
2019-01-16T02:10:41.242Z,87.00
2019-01-16T02:13:40.559Z,86.90
2019-01-16T02:16:21.183Z,87.60
2019-01-16T02:19:11.099Z,87.60
2019-01-16T02:22:01.118Z,88.00
2019-01-16T02:24:46.234Z,87.90
2019-01-16T02:27:26.836Z,87.80
2019-01-16T02:30:23.204Z,88.10
2019-01-16T02:33:08.649Z,87.70
2019-01-16T02:35:54.449Z,88.00
2019-01-16T02:38:42.231Z,88.00
2019-01-16T02:41:28.482Z,87.90
2019-01-16T02:44:28.273Z,88.10
2019-01-16T02:47:14.097Z,88.20
2019-01-16T02:50:07.346Z,88.30
2019-01-16T02:52:43.886Z,88.30
2019-01-16T02:55:29.910Z,88.50
2019-01-16T02:58:09.181Z,88.50
2019-01-16T03:00:58.701Z,88.20
2019-01-16T03:03:57.727Z,88.40
2019-01-16T03:06:32.384Z,88.40
2019-01-16T03:09:18.521Z,88.70
2019-01-16T03:12:07.971Z,89.10
2019-01-16T03:14:54.977Z,89.20
2019-01-16T03:17:41.935Z,89.10
2019-01-16T03:20:28.814Z,89.20
2019-01-16T03:23:27.837Z,89.00
2019-01-16T03:26:03.263Z,89.20
2019-01-16T03:28:44.222Z,89.40
2019-01-16T03:31:38.400Z,89.30
2019-01-16T03:34:40.739Z,89.30
2019-01-16T03:37:33.711Z,89.50
2019-01-16T03:40:20.711Z,89.20
2019-01-16T03:43:10.541Z,88.50
2019-01-16T03:45:56.177Z,88.40
2019-01-16T03:48:43.587Z,88.50
2019-01-16T03:51:42.644Z,88.40
2019-01-16T03:54:22.494Z,88.10
2019-01-16T03:57:09.490Z,88.30
2019-01-16T03:59:55.205Z,88.20
2019-01-16T04:02:42.282Z,88.70
2019-01-16T04:05:27.881Z,88.40
2019-01-16T04:08:13.191Z,88.50
2019-01-16T04:11:18.327Z,88.70
2019-01-16T04:14:04.443Z,88.90
2019-01-16T04:16:50.395Z,88.90
2019-01-16T04:19:36.400Z,88.10
2019-01-16T04:22:28.352Z,88.30
2019-01-16T04:25:21.184Z,88.40
2019-01-16T04:28:08.122Z,88.50
2019-01-16T04:30:58.117Z,88.20
2019-01-16T04:33:43.984Z,87.70
2019-01-16T04:36:33.998Z,88.00
2019-01-16T04:39:15.786Z,87.60
2019-01-16T04:42:05.663Z,87.30
2019-01-16T04:44:40.365Z,87.40
2019-01-16T04:47:28.133Z,87.50
2019-01-16T04:50:21.218Z,87.60
2019-01-16T04:53:02.580Z,87.50
2019-01-16T04:55:55.668Z,88.10
2019-01-16T04:58:50.884Z,88.00
2019-01-16T05:01:44.097Z,88.00
2019-01-16T05:04:34.200Z,88.20
2019-01-16T05:07:24.259Z,87.70
2019-01-16T05:10:09.712Z,87.70
2019-01-16T05:12:59.718Z,87.60
2019-01-16T05:15:45.241Z,87.30
2019-01-16T05:18:32.888Z,87.20
2019-01-16T05:21:17.415Z,87.60
2019-01-16T05:23:57.867Z,87.50
2019-01-16T05:26:35.076Z,87.50
2019-01-16T05:29:28.016Z,87.70
2019-01-16T05:32:27.146Z,87.90
2019-01-16T05:35:13.161Z,87.80
2019-01-16T05:38:19.151Z,88.00
2019-01-16T05:41:08.837Z,88.40
2019-01-16T05:43:54.322Z,88.50
2019-01-16T05:46:56.323Z,88.20
2019-01-16T05:49:35.551Z,88.30
2019-01-16T05:52:21.485Z,88.10
2019-01-16T05:55:23.312Z,88.40
2019-01-16T05:58:25.922Z,88.40
2019-01-16T06:01:12.595Z,88.70
2019-01-16T06:04:05.603Z,88.50
2019-01-16T06:06:51.296Z,88.70
2019-01-16T06:09:27.796Z,88.70
2019-01-16T06:12:23.897Z,88.70
2019-01-16T06:15:11.935Z,89.10
2019-01-16T06:17:57.837Z,89.30
2019-01-16T06:20:43.828Z,89.40
2019-01-16T06:23:29.529Z,89.60
2019-01-16T06:26:16.522Z,89.50
2019-01-16T06:29:03.089Z,89.20
2019-01-16T06:32:07.988Z,89.20
2019-01-16T06:34:50.186Z,89.20
2019-01-16T06:37:36.167Z,89.20
2019-01-16T06:40:35.723Z,89.20
2019-01-16T06:43:17.797Z,89.30
2019-01-16T06:45:52.798Z,89.40
2019-01-16T06:48:38.412Z,89.50
2019-01-16T06:51:24.500Z,89.40
2019-01-16T06:54:09.259Z,89.60
2019-01-16T06:56:53.096Z,89.50
2019-01-16T06:59:40.050Z,89.70
2019-01-16T07:02:30.211Z,89.90
2019-01-16T07:05:35.250Z,89.80
2019-01-16T07:08:12.333Z,89.90
2019-01-16T07:10:57.900Z,89.80
2019-01-16T07:13:47.659Z,89.70
2019-01-16T07:16:33.518Z,89.70
2019-01-16T07:19:26.678Z,89.70
2019-01-16T07:22:06.959Z,89.50
2019-01-16T07:24:53.954Z,89.30
2019-01-16T07:27:32.323Z,89.40
2019-01-16T07:30:13.505Z,89.30
2019-01-16T07:32:59.421Z,89.70
2019-01-16T07:36:04.735Z,89.50
2019-01-16T07:39:00.941Z,89.00
2019-01-16T07:41:52.926Z,88.90
2019-01-16T07:44:30.302Z,89.10
2019-01-16T07:47:15.733Z,89.40
2019-01-16T07:50:09.257Z,89.30
2019-01-16T07:53:05.014Z,89.10
2019-01-16T07:55:57.855Z,89.40
2019-01-16T07:58:41.471Z,89.20
2019-01-16T08:01:20.594Z,89.20
2019-01-16T08:03:58.997Z,89.40
2019-01-16T08:06:45.307Z,89.40
2019-01-16T08:09:22.814Z,89.60
2019-01-16T08:12:05.588Z,89.60
2019-01-16T08:14:46.610Z,89.70
2019-01-16T08:17:26.940Z,89.40
2019-01-16T08:20:24.816Z,89.00
2019-01-16T08:23:14.003Z,89.10
2019-01-16T08:26:13.164Z,88.80
2019-01-16T08:29:00.026Z,88.70
2019-01-16T08:31:45.884Z,89.10
2019-01-16T08:34:33.739Z,89.00
2019-01-16T08:37:13.245Z,89.10
2019-01-16T08:40:08.453Z,88.50
2019-01-16T08:42:59.752Z,88.80
2019-01-16T08:46:04.742Z,88.50
2019-01-16T08:48:57.718Z,88.30
2019-01-16T08:51:53.501Z,87.90
2019-01-16T08:54:39.219Z,88.30
2019-01-16T08:57:20.770Z,88.40
2019-01-16T09:00:10.639Z,87.50
2019-01-16T09:02:50.087Z,87.70
2019-01-16T09:05:38.425Z,87.90
2019-01-16T09:08:37.676Z,87.70
2019-01-16T09:11:30.554Z,87.20
2019-01-16T09:14:20.346Z,87.10
2019-01-16T09:17:16.820Z,87.20
2019-01-16T09:19:59.927Z,87.10
2019-01-16T09:23:05.271Z,87.20
2019-01-16T09:25:45.898Z,86.90
2019-01-16T09:28:39.105Z,87.10
2019-01-16T09:31:24.874Z,86.90
2019-01-16T09:34:10.775Z,87.20
2019-01-16T09:37:11.024Z,86.80
2019-01-16T09:39:54.212Z,86.90
2019-01-16T09:42:41.247Z,87.20
2019-01-16T09:45:26.961Z,86.70
2019-01-16T09:48:22.744Z,86.70
2019-01-16T09:51:12.291Z,86.70
2019-01-16T09:53:58.413Z,86.80
2019-01-16T09:56:54.984Z,86.50
2019-01-16T09:59:50.881Z,86.80
2019-01-16T10:02:36.209Z,86.50
2019-01-16T10:05:17.785Z,87.00
2019-01-16T10:07:51.860Z,86.50
2019-01-16T10:11:02.339Z,86.30
2019-01-16T10:13:47.729Z,86.40
2019-01-16T10:16:34.742Z,86.50
2019-01-16T10:19:17.441Z,85.80
2019-01-16T10:21:55.028Z,86.20
2019-01-16T10:24:33.115Z,85.90
2019-01-16T10:27:21.641Z,85.50
2019-01-16T10:30:11.625Z,85.40
2019-01-16T10:33:13.931Z,85.50
2019-01-16T10:35:49.202Z,85.60
2019-01-16T10:38:35.128Z,85.40
2019-01-16T10:41:17.641Z,85.10
2019-01-16T10:44:04.745Z,85.30
2019-01-16T10:46:50.051Z,85.60
2019-01-16T10:49:40.129Z,84.90
2019-01-16T10:52:43.597Z,84.80
2019-01-16T10:55:26.608Z,84.50
2019-01-16T10:58:09.242Z,84.50
2019-01-16T11:00:55.089Z,85.00
2019-01-16T11:03:45.184Z,84.90
2019-01-16T11:06:28.676Z,84.70
2019-01-16T11:09:16.102Z,84.80
2019-01-16T11:12:08.895Z,84.70
2019-01-16T11:14:48.660Z,84.50
2019-01-16T11:17:35.751Z,84.30
2019-01-16T11:20:36.695Z,84.40
2019-01-16T11:23:19.510Z,84.70
2019-01-16T11:26:05.072Z,84.90
2019-01-16T11:28:55.105Z,84.50
2019-01-16T11:31:40.659Z,84.50
2019-01-16T11:34:26.638Z,84.20
2019-01-16T11:37:13.548Z,84.00
2019-01-16T11:39:52.435Z,84.00
2019-01-16T11:42:39.508Z,83.70
2019-01-16T11:45:17.332Z,83.70
2019-01-16T11:48:13.377Z,84.00
2019-01-16T11:51:00.443Z,83.20
2019-01-16T11:53:46.416Z,83.00
2019-01-16T11:56:36.383Z,83.00
2019-01-16T11:59:14.181Z,82.80
2019-01-16T12:01:59.765Z,83.00
2019-01-16T12:04:46.838Z,82.90
2019-01-16T12:07:34.126Z,82.90
2019-01-16T12:10:21.351Z,83.60
2019-01-16T12:12:57.652Z,83.30
2019-01-16T12:15:56.937Z,83.40
2019-01-16T12:18:42.968Z,83.50
2019-01-16T12:21:31.331Z,83.40
2019-01-16T12:24:16.957Z,82.70
2019-01-16T12:27:09.997Z,83.00
2019-01-16T12:30:09.403Z,82.40
2019-01-16T12:32:49.402Z,82.30
2019-01-16T12:35:34.673Z,81.80
2019-01-16T12:38:19.223Z,81.40
2019-01-16T12:41:05.110Z,81.40
2019-01-16T12:43:52.097Z,81.80
2019-01-16T12:46:34.755Z,82.50
2019-01-16T12:49:28.124Z,82.40
2019-01-16T12:52:15.132Z,82.20
2019-01-16T12:55:01.021Z,82.00
2019-01-16T12:57:54.334Z,81.80
2019-01-16T13:00:33.191Z,80.80
2019-01-16T13:03:19.019Z,80.80
2019-01-16T13:06:18.361Z,80.40
2019-01-16T13:09:05.907Z,80.10
2019-01-16T13:11:52.251Z,80.30
2019-01-16T13:14:31.468Z,79.50
2019-01-16T13:17:08.874Z,80.10
2019-01-16T13:19:54.639Z,80.50
2019-01-16T13:22:31.822Z,80.30
2019-01-16T13:25:24.711Z,79.40
2019-01-16T13:28:17.636Z,79.80
2019-01-16T13:31:03.286Z,79.40
2019-01-16T13:33:43.391Z,79.60
2019-01-16T13:36:36.366Z,79.30
2019-01-16T13:39:32.797Z,78.70
2019-01-16T13:42:19.816Z,77.20
2019-01-16T13:45:05.666Z,76.80
2019-01-16T13:47:52.263Z,77.30
2019-01-16T13:50:38.155Z,76.60
2019-01-16T13:53:28.992Z,76.60
2019-01-16T13:56:35.546Z,76.40
2019-01-16T13:59:17.240Z,76.40
2019-01-16T14:02:01.895Z,76.70
2019-01-16T14:04:41.444Z,76.20
2019-01-16T14:07:37.224Z,76.20
2019-01-16T14:10:33.391Z,76.30
2019-01-16T14:13:27.663Z,76.20
2019-01-16T14:16:13.743Z,76.10
2019-01-16T14:19:04.390Z,76.20
2019-01-16T14:21:52.805Z,76.20
2019-01-16T14:24:27.099Z,76.50
2019-01-16T14:27:15.990Z,76.30
2019-01-16T14:30:02.952Z,76.50
2019-01-16T14:32:56.491Z,76.70
2019-01-16T14:35:42.678Z,76.50
2019-01-16T14:38:29.917Z,77.00
2019-01-16T14:41:05.162Z,76.90
2019-01-16T14:43:40.770Z,76.90
2019-01-16T14:46:27.737Z,76.90
2019-01-16T14:49:14.739Z,76.90
2019-01-16T14:51:47.445Z,77.50
2019-01-16T14:54:38.363Z,77.30
2019-01-16T14:57:22.766Z,76.80
2019-01-16T15:00:14.256Z,77.50
2019-01-16T15:02:59.974Z,77.80
2019-01-16T15:05:48.482Z,78.10
2019-01-16T15:08:37.576Z,77.80
2019-01-16T15:11:28.002Z,77.70
2019-01-16T15:14:10.683Z,77.10
2019-01-16T15:16:57.711Z,77.10
2019-01-16T15:19:50.984Z,77.20
2019-01-16T15:22:37.792Z,77.30
2019-01-16T15:25:28.899Z,77.60
2019-01-16T15:28:14.775Z,78.20
2019-01-16T15:30:59.866Z,78.30
2019-01-16T15:33:57.238Z,78.60
2019-01-16T15:36:44.328Z,78.70
2019-01-16T15:39:34.615Z,79.60
2019-01-16T15:42:12.856Z,79.10
2019-01-16T15:44:50.410Z,79.50
2019-01-16T15:47:36.097Z,79.30
2019-01-16T15:50:41.824Z,79.90
2019-01-16T15:53:31.805Z,80.20
2019-01-16T15:56:33.992Z,81.00
2019-01-16T15:59:16.932Z,81.10
2019-01-16T16:02:02.817Z,81.10
2019-01-16T16:04:43.923Z,81.60
2019-01-16T16:07:36.951Z,81.30
2019-01-16T16:10:17.025Z,81.60
2019-01-16T16:13:06.991Z,82.20
2019-01-16T16:16:00.243Z,82.70
2019-01-16T16:18:38.957Z,83.00
2019-01-16T16:21:29.218Z,82.10
2019-01-16T16:24:31.326Z,82.50
2019-01-16T16:27:21.551Z,82.50
2019-01-16T16:30:17.820Z,82.70
2019-01-16T16:33:03.530Z,82.30
2019-01-16T16:35:49.387Z,82.20
2019-01-16T16:38:30.201Z,82.00
2019-01-16T16:41:17.173Z,82.20
2019-01-16T16:44:06.502Z,82.10
2019-01-16T16:46:53.722Z,82.20
2019-01-16T16:49:27.203Z,82.20
2019-01-16T16:52:14.428Z,82.50
2019-01-16T16:55:00.497Z,82.80
2019-01-16T16:57:47.477Z,83.60
2019-01-16T17:00:31.543Z,83.20
2019-01-16T17:03:17.300Z,83.50
2019-01-16T17:06:25.307Z,83.90
2019-01-16T17:09:30.675Z,83.00
2019-01-16T17:12:07.418Z,83.30
2019-01-16T17:14:53.203Z,83.40
2019-01-16T17:17:40.325Z,82.60
2019-01-16T17:20:26.595Z,82.00
2019-01-16T17:23:13.566Z,81.00
2019-01-16T17:25:59.316Z,80.90
2019-01-16T17:28:37.733Z,80.20
2019-01-16T17:31:21.562Z,80.10
2019-01-16T17:34:04.403Z,80.30
2019-01-16T17:37:00.390Z,80.00
2019-01-16T17:39:46.991Z,80.30
2019-01-16T17:42:39.974Z,79.80
2019-01-16T17:45:26.115Z,80.20
2019-01-16T17:48:22.205Z,79.60
2019-01-16T17:51:09.761Z,79.70
2019-01-16T17:53:53.597Z,79.70
2019-01-16T17:56:52.632Z,79.70
2019-01-16T17:59:39.092Z,80.00
2019-01-16T18:02:16.860Z,80.00
2019-01-16T18:05:12.962Z,80.10
2019-01-16T18:07:51.692Z,80.20
2019-01-16T18:10:35.549Z,80.40
2019-01-16T18:13:11.634Z,80.70
2019-01-16T18:15:51.979Z,80.70
2019-01-16T18:18:42.336Z,81.30
2019-01-16T18:21:29.408Z,81.10
2019-01-16T18:24:15.580Z,81.30
2019-01-16T18:27:14.824Z,81.50
2019-01-16T18:30:00.708Z,80.50
2019-01-16T18:32:46.881Z,80.70
2019-01-16T18:35:36.429Z,80.50
2019-01-16T18:38:29.547Z,80.00
2019-01-16T18:41:06.792Z,80.20
2019-01-16T18:44:08.645Z,80.20
2019-01-16T18:47:04.702Z,80.40
2019-01-16T18:49:54.652Z,80.80
2019-01-16T18:52:51.781Z,80.90
2019-01-16T18:55:35.449Z,80.70
2019-01-16T18:58:18.404Z,81.00
2019-01-16T19:00:58.473Z,81.10
2019-01-16T19:03:57.639Z,81.00
2019-01-16T19:06:43.104Z,81.10
2019-01-16T19:09:30.385Z,80.90
2019-01-16T19:12:16.267Z,80.80
2019-01-16T19:14:58.200Z,81.00
2019-01-16T19:17:42.040Z,81.00
2019-01-16T19:20:34.847Z,81.00
2019-01-16T19:23:20.215Z,81.10
2019-01-16T19:26:03.517Z,80.90
2019-01-16T19:28:48.914Z,81.00
2019-01-16T19:31:35.909Z,81.10
2019-01-16T19:34:14.323Z,81.20
2019-01-16T19:37:10.359Z,81.00
2019-01-16T19:39:51.886Z,81.40
2019-01-16T19:42:38.837Z,81.20
2019-01-16T19:45:26.902Z,81.50
2019-01-16T19:48:13.895Z,81.40
2019-01-16T19:50:57.474Z,81.30
2019-01-16T19:53:43.159Z,81.60
2019-01-16T19:56:25.627Z,81.60
2019-01-16T19:59:12.605Z,81.60
2019-01-16T20:02:02.595Z,81.80
2019-01-16T20:04:45.764Z,81.70
2019-01-16T20:07:35.727Z,81.80
2019-01-16T20:10:24.815Z,82.10
2019-01-16T20:13:10.885Z,82.10
2019-01-16T20:15:58.034Z,82.30
2019-01-16T20:18:57.336Z,82.30
2019-01-16T20:21:39.217Z,82.20
2019-01-16T20:24:29.414Z,82.50
2019-01-16T20:27:15.642Z,82.60
2019-01-16T20:30:03.750Z,82.60
2019-01-16T20:33:06.665Z,82.50
2019-01-16T20:35:45.444Z,82.40
2019-01-16T20:38:31.040Z,82.60
2019-01-16T20:41:17.990Z,82.90
2019-01-16T20:44:32.999Z,83.30
2019-01-16T20:47:22.763Z,82.80
2019-01-16T20:50:08.634Z,83.00
2019-01-16T20:52:49.189Z,82.70
2019-01-16T20:55:45.705Z,82.50
2019-01-16T20:58:37.331Z,82.40
2019-01-16T21:01:27.468Z,82.40
2019-01-16T21:04:18.142Z,82.10
2019-01-16T21:06:56.207Z,82.50
2019-01-16T21:09:49.555Z,82.60
2019-01-16T21:12:32.011Z,82.50
2019-01-16T21:15:21.747Z,82.60
2019-01-16T21:18:11.591Z,82.70
2019-01-16T21:20:53.817Z,82.40
2019-01-16T21:23:51.889Z,82.60
2019-01-16T21:26:47.467Z,82.60
2019-01-16T21:29:28.516Z,82.80
2019-01-16T21:32:15.584Z,82.80
2019-01-16T21:34:55.006Z,82.80
2019-01-16T21:37:40.842Z,82.70
2019-01-16T21:40:29.162Z,82.50
2019-01-16T21:43:25.276Z,82.70
2019-01-16T21:46:12.256Z,82.60
2019-01-16T21:49:11.308Z,82.40
2019-01-16T21:52:10.292Z,82.10
2019-01-16T21:54:48.473Z,82.00
2019-01-16T21:57:34.601Z,82.40
2019-01-16T22:00:21.407Z,82.50
2019-01-16T22:03:00.646Z,82.60
2019-01-16T22:05:47.546Z,82.30
2019-01-16T22:08:34.875Z,82.40
2019-01-16T22:11:10.498Z,82.30
2019-01-16T22:13:57.492Z,82.10
2019-01-16T22:16:32.862Z,82.30
2019-01-16T22:19:24.395Z,82.30
2019-01-16T22:22:23.729Z,82.40
2019-01-16T22:25:02.375Z,82.30
2019-01-16T22:27:48.135Z,82.40
2019-01-16T22:30:48.278Z,82.40
2019-01-16T22:33:50.462Z,82.50
2019-01-16T22:36:26.869Z,82.40
2019-01-16T22:39:13.858Z,82.50
2019-01-16T22:42:00.977Z,82.60
2019-01-16T22:44:48.091Z,82.60
2019-01-16T22:47:32.962Z,82.80
2019-01-16T22:50:38.341Z,83.10
2019-01-16T22:53:31.042Z,82.80
2019-01-16T22:56:29.231Z,82.70
2019-01-16T22:59:22.692Z,82.90
2019-01-16T23:02:08.632Z,83.00
2019-01-16T23:04:54.390Z,82.90
2019-01-16T23:07:44.966Z,83.00
2019-01-16T23:10:30.895Z,82.90
2019-01-16T23:13:36.159Z,83.20
2019-01-16T23:16:24.775Z,83.20
2019-01-16T23:19:10.587Z,83.20
2019-01-16T23:21:57.556Z,83.30
2019-01-16T23:24:47.281Z,83.60
2019-01-16T23:27:36.245Z,83.40
2019-01-16T23:30:24.748Z,83.80
2019-01-16T23:33:14.961Z,83.60
2019-01-16T23:35:56.735Z,83.90
2019-01-16T23:38:46.851Z,83.90
2019-01-16T23:41:23.891Z,84.50
2019-01-16T23:44:09.599Z,84.60
2019-01-16T23:47:11.897Z,85.00
2019-01-16T23:49:58.300Z,85.10
2019-01-16T23:52:42.142Z,85.70
2019-01-16T23:55:28.190Z,85.50
2019-01-16T23:58:16.257Z,85.90
